sensor_id;sensor_type;location;lat;lon;timestamp;temperature;humidity
18361;SHT31;9308;48.550;9.108;2023-08-08T00:01:16;15.48;65.49
18361;SHT31;9308;48.550;9.108;2023-08-08T00:04:02;15.24;66.18
18361;SHT31;9308;48.550;9.108;2023-08-08T00:06:47;15.28;65.88
18361;SHT31;9308;48.550;9.108;2023-08-08T00:09:32;15.18;66.09
18361;SHT31;9308;48.550;9.108;2023-08-08T00:12:18;15.23;66.21
18361;SHT31;9308;48.550;9.108;2023-08-08T00:15:03;15.28;65.79
18361;SHT31;9308;48.550;9.108;2023-08-08T00:17:48;15.06;66.62
18361;SHT31;9308;48.550;9.108;2023-08-08T00:20:34;15.10;66.75
18361;SHT31;9308;48.550;9.108;2023-08-08T00:23:19;14.99;66.82
18361;SHT31;9308;48.550;9.108;2023-08-08T00:26:04;15.37;65.86
18361;SHT31;9308;48.550;9.108;2023-08-08T00:28:50;15.26;66.00
18361;SHT31;9308;48.550;9.108;2023-08-08T00:31:35;15.23;66.94
18361;SHT31;9308;48.550;9.108;2023-08-08T00:34:20;15.65;65.44
18361;SHT31;9308;48.550;9.108;2023-08-08T00:37:05;15.44;65.62
18361;SHT31;9308;48.550;9.108;2023-08-08T00:39:51;15.42;66.34
18361;SHT31;9308;48.550;9.108;2023-08-08T00:42:36;15.30;67.11
18361;SHT31;9308;48.550;9.108;2023-08-08T00:45:21;15.31;66.92
18361;SHT31;9308;48.550;9.108;2023-08-08T00:48:07;15.68;66.09
18361;SHT31;9308;48.550;9.108;2023-08-08T00:50:52;15.55;66.41
18361;SHT31;9308;48.550;9.108;2023-08-08T00:53:38;15.61;66.31
18361;SHT31;9308;48.550;9.108;2023-08-08T00:56:23;15.75;66.03
18361;SHT31;9308;48.550;9.108;2023-08-08T00:59:11;15.61;66.17
18361;SHT31;9308;48.550;9.108;2023-08-08T01:01:57;15.44;66.93
18361;SHT31;9308;48.550;9.108;2023-08-08T01:04:42;15.76;65.98
18361;SHT31;9308;48.550;9.108;2023-08-08T01:07:35;15.87;65.58
18361;SHT31;9308;48.550;9.108;2023-08-08T01:10:26;15.35;67.07
18361;SHT31;9308;48.550;9.108;2023-08-08T01:13:17;15.61;66.59
18361;SHT31;9308;48.550;9.108;2023-08-08T01:16:03;15.61;67.05
18361;SHT31;9308;48.550;9.108;2023-08-08T01:18:50;15.65;66.70
18361;SHT31;9308;48.550;9.108;2023-08-08T01:21:37;15.40;67.42
18361;SHT31;9308;48.550;9.108;2023-08-08T01:24:25;15.51;66.87
18361;SHT31;9308;48.550;9.108;2023-08-08T01:27:13;15.35;67.64
18361;SHT31;9308;48.550;9.108;2023-08-08T01:29:59;15.55;66.83
18361;SHT31;9308;48.550;9.108;2023-08-08T01:32:44;15.58;66.68
18361;SHT31;9308;48.550;9.108;2023-08-08T01:35:32;15.52;66.89
18361;SHT31;9308;48.550;9.108;2023-08-08T01:38:40;15.26;67.65
18361;SHT31;9308;48.550;9.108;2023-08-08T01:41:26;15.45;67.45
18361;SHT31;9308;48.550;9.108;2023-08-08T01:44:11;15.51;67.33
18361;SHT31;9308;48.550;9.108;2023-08-08T01:46:57;15.47;67.23
18361;SHT31;9308;48.550;9.108;2023-08-08T01:49:42;15.63;66.83
18361;SHT31;9308;48.550;9.108;2023-08-08T01:52:28;15.80;66.49
18361;SHT31;9308;48.550;9.108;2023-08-08T01:55:13;16.03;66.13
18361;SHT31;9308;48.550;9.108;2023-08-08T01:57:59;15.80;66.24
18361;SHT31;9308;48.550;9.108;2023-08-08T02:00:44;15.76;66.17
18361;SHT31;9308;48.550;9.108;2023-08-08T02:03:31;15.96;65.64
18361;SHT31;9308;48.550;9.108;2023-08-08T02:06:17;15.63;66.16
18361;SHT31;9308;48.550;9.108;2023-08-08T02:09:02;15.72;66.28
18361;SHT31;9308;48.550;9.108;2023-08-08T02:11:47;15.75;66.40
18361;SHT31;9308;48.550;9.108;2023-08-08T02:14:32;15.65;66.32
18361;SHT31;9308;48.550;9.108;2023-08-08T02:17:18;15.61;66.27
18361;SHT31;9308;48.550;9.108;2023-08-08T02:20:05;15.73;65.81
18361;SHT31;9308;48.550;9.108;2023-08-08T02:22:50;15.52;66.95
18361;SHT31;9308;48.550;9.108;2023-08-08T02:25:35;15.45;66.33
18361;SHT31;9308;48.550;9.108;2023-08-08T02:28:20;15.65;66.46
18361;SHT31;9308;48.550;9.108;2023-08-08T02:31:06;15.58;67.00
18361;SHT31;9308;48.550;9.108;2023-08-08T02:33:51;15.55;67.09
18361;SHT31;9308;48.550;9.108;2023-08-08T02:36:36;15.76;66.59
18361;SHT31;9308;48.550;9.108;2023-08-08T02:39:22;15.63;66.67
18361;SHT31;9308;48.550;9.108;2023-08-08T02:42:07;15.76;66.35
18361;SHT31;9308;48.550;9.108;2023-08-08T02:44:52;15.85;65.83
18361;SHT31;9308;48.550;9.108;2023-08-08T02:47:37;15.45;66.91
18361;SHT31;9308;48.550;9.108;2023-08-08T02:50:23;15.32;67.47
18361;SHT31;9308;48.550;9.108;2023-08-08T02:53:08;15.63;66.85
18361;SHT31;9308;48.550;9.108;2023-08-08T02:55:53;15.76;66.22
18361;SHT31;9308;48.550;9.108;2023-08-08T02:58:39;15.75;66.42
18361;SHT31;9308;48.550;9.108;2023-08-08T03:01:24;15.59;66.32
18361;SHT31;9308;48.550;9.108;2023-08-08T03:04:09;15.47;66.42
18361;SHT31;9308;48.550;9.108;2023-08-08T03:06:55;15.47;67.41
18361;SHT31;9308;48.550;9.108;2023-08-08T03:09:40;15.50;66.87
18361;SHT31;9308;48.550;9.108;2023-08-08T03:12:25;15.47;66.80
18361;SHT31;9308;48.550;9.108;2023-08-08T03:15:11;15.52;66.42
18361;SHT31;9308;48.550;9.108;2023-08-08T03:17:56;15.41;67.23
18361;SHT31;9308;48.550;9.108;2023-08-08T03:20:42;15.42;67.36
18361;SHT31;9308;48.550;9.108;2023-08-08T03:23:28;15.54;66.92
18361;SHT31;9308;48.550;9.108;2023-08-08T03:26:13;15.52;66.92
18361;SHT31;9308;48.550;9.108;2023-08-08T03:28:58;15.57;66.53
18361;SHT31;9308;48.550;9.108;2023-08-08T03:31:44;15.86;65.93
18361;SHT31;9308;48.550;9.108;2023-08-08T03:34:29;15.68;65.45
18361;SHT31;9308;48.550;9.108;2023-08-08T03:37:15;15.52;65.66
18361;SHT31;9308;48.550;9.108;2023-08-08T03:40:00;15.65;65.87
18361;SHT31;9308;48.550;9.108;2023-08-08T03:42:45;15.71;66.90
18361;SHT31;9308;48.550;9.108;2023-08-08T03:45:31;16.03;65.80
18361;SHT31;9308;48.550;9.108;2023-08-08T03:48:16;15.94;65.40
18361;SHT31;9308;48.550;9.108;2023-08-08T03:51:01;16.05;65.09
18361;SHT31;9308;48.550;9.108;2023-08-08T03:53:47;15.93;66.18
18361;SHT31;9308;48.550;9.108;2023-08-08T03:56:33;15.68;66.10
18361;SHT31;9308;48.550;9.108;2023-08-08T03:59:18;15.63;66.20
18361;SHT31;9308;48.550;9.108;2023-08-08T04:02:03;15.79;66.33
18361;SHT31;9308;48.550;9.108;2023-08-08T04:04:49;15.78;65.90
18361;SHT31;9308;48.550;9.108;2023-08-08T04:07:34;16.07;66.21
18361;SHT31;9308;48.550;9.108;2023-08-08T04:10:19;15.97;64.93
18361;SHT31;9308;48.550;9.108;2023-08-08T04:13:05;15.96;65.22
18361;SHT31;9308;48.550;9.108;2023-08-08T04:15:50;15.94;65.23
18361;SHT31;9308;48.550;9.108;2023-08-08T04:18:36;16.23;64.59
18361;SHT31;9308;48.550;9.108;2023-08-08T04:21:22;16.01;64.78
18361;SHT31;9308;48.550;9.108;2023-08-08T04:24:08;16.05;64.90
18361;SHT31;9308;48.550;9.108;2023-08-08T04:26:53;16.20;64.41
18361;SHT31;9308;48.550;9.108;2023-08-08T04:29:39;16.27;64.30
18361;SHT31;9308;48.550;9.108;2023-08-08T04:32:24;16.20;64.34
18361;SHT31;9308;48.550;9.108;2023-08-08T04:35:09;16.30;64.17
18361;SHT31;9308;48.550;9.108;2023-08-08T04:37:55;15.83;65.99
18361;SHT31;9308;48.550;9.108;2023-08-08T04:40:40;16.16;65.07
18361;SHT31;9308;48.550;9.108;2023-08-08T04:43:26;16.20;65.16
18361;SHT31;9308;48.550;9.108;2023-08-08T04:46:13;15.79;66.39
18361;SHT31;9308;48.550;9.108;2023-08-08T04:48:58;16.16;64.97
18361;SHT31;9308;48.550;9.108;2023-08-08T04:51:43;16.37;64.68
18361;SHT31;9308;48.550;9.108;2023-08-08T04:54:29;16.18;65.56
18361;SHT31;9308;48.550;9.108;2023-08-08T04:57:14;16.34;64.93
18361;SHT31;9308;48.550;9.108;2023-08-08T04:59:59;16.38;64.97
18361;SHT31;9308;48.550;9.108;2023-08-08T05:02:49;16.35;65.12
18361;SHT31;9308;48.550;9.108;2023-08-08T05:05:35;16.35;65.06
18361;SHT31;9308;48.550;9.108;2023-08-08T05:08:20;16.23;65.47
18361;SHT31;9308;48.550;9.108;2023-08-08T05:11:05;16.18;65.91
18361;SHT31;9308;48.550;9.108;2023-08-08T05:13:51;15.97;65.90
18361;SHT31;9308;48.550;9.108;2023-08-08T05:16:36;15.97;66.94
18361;SHT31;9308;48.550;9.108;2023-08-08T05:19:21;16.06;66.53
18361;SHT31;9308;48.550;9.108;2023-08-08T05:22:07;16.16;65.95
18361;SHT31;9308;48.550;9.108;2023-08-08T05:24:52;16.17;66.41
18361;SHT31;9308;48.550;9.108;2023-08-08T05:27:37;16.13;66.70
18361;SHT31;9308;48.550;9.108;2023-08-08T05:30:22;16.09;66.04
18361;SHT31;9308;48.550;9.108;2023-08-08T05:33:08;16.09;66.63
18361;SHT31;9308;48.550;9.108;2023-08-08T05:35:53;16.18;65.93
18361;SHT31;9308;48.550;9.108;2023-08-08T05:38:38;16.34;65.74
18361;SHT31;9308;48.550;9.108;2023-08-08T05:41:24;16.12;64.24
18361;SHT31;9308;48.550;9.108;2023-08-08T05:44:09;16.07;64.97
18361;SHT31;9308;48.550;9.108;2023-08-08T05:46:54;16.34;64.68
18361;SHT31;9308;48.550;9.108;2023-08-08T05:49:39;16.06;64.65
18361;SHT31;9308;48.550;9.108;2023-08-08T05:52:27;15.94;65.25
18361;SHT31;9308;48.550;9.108;2023-08-08T05:55:13;16.23;65.06
18361;SHT31;9308;48.550;9.108;2023-08-08T05:57:58;15.94;64.83
18361;SHT31;9308;48.550;9.108;2023-08-08T06:00:43;16.00;64.90
18361;SHT31;9308;48.550;9.108;2023-08-08T06:03:29;16.12;64.59
18361;SHT31;9308;48.550;9.108;2023-08-08T06:06:14;16.09;64.55
18361;SHT31;9308;48.550;9.108;2023-08-08T06:08:59;16.42;64.14
18361;SHT31;9308;48.550;9.108;2023-08-08T06:11:45;16.52;63.63
18361;SHT31;9308;48.550;9.108;2023-08-08T06:14:30;16.68;64.21
18361;SHT31;9308;48.550;9.108;2023-08-08T06:17:16;16.77;63.19
18361;SHT31;9308;48.550;9.108;2023-08-08T06:20:01;16.80;63.04
18361;SHT31;9308;48.550;9.108;2023-08-08T06:22:46;16.83;63.02
18361;SHT31;9308;48.550;9.108;2023-08-08T06:25:32;16.69;63.23
18361;SHT31;9308;48.550;9.108;2023-08-08T06:28:17;16.68;62.75
18361;SHT31;9308;48.550;9.108;2023-08-08T06:31:02;16.79;63.17
18361;SHT31;9308;48.550;9.108;2023-08-08T06:33:47;17.03;62.05
18361;SHT31;9308;48.550;9.108;2023-08-08T06:36:33;17.11;62.28
18361;SHT31;9308;48.550;9.108;2023-08-08T06:39:18;17.11;62.25
18361;SHT31;9308;48.550;9.108;2023-08-08T06:42:06;17.24;62.26
18361;SHT31;9308;48.550;9.108;2023-08-08T06:44:51;17.17;62.59
18361;SHT31;9308;48.550;9.108;2023-08-08T06:47:37;17.59;62.80
18361;SHT31;9308;48.550;9.108;2023-08-08T06:50:22;17.78;62.31
18361;SHT31;9308;48.550;9.108;2023-08-08T06:53:09;18.09;61.37
18361;SHT31;9308;48.550;9.108;2023-08-08T06:55:54;17.83;61.17
18361;SHT31;9308;48.550;9.108;2023-08-08T06:58:40;18.23;60.73
18361;SHT31;9308;48.550;9.108;2023-08-08T07:01:25;18.17;61.47
18361;SHT31;9308;48.550;9.108;2023-08-08T07:04:10;18.40;61.15
18361;SHT31;9308;48.550;9.108;2023-08-08T07:06:55;18.60;61.13
18361;SHT31;9308;48.550;9.108;2023-08-08T07:09:41;18.52;58.74
18361;SHT31;9308;48.550;9.108;2023-08-08T07:12:26;18.69;58.56
18361;SHT31;9308;48.550;9.108;2023-08-08T07:15:12;18.93;59.19
18361;SHT31;9308;48.550;9.108;2023-08-08T07:17:57;19.09;58.64
18361;SHT31;9308;48.550;9.108;2023-08-08T07:20:43;18.92;58.51
18361;SHT31;9308;48.550;9.108;2023-08-08T07:23:28;19.07;58.48
18361;SHT31;9308;48.550;9.108;2023-08-08T07:26:14;19.14;57.71
18361;SHT31;9308;48.550;9.108;2023-08-08T07:28:59;19.23;58.13
18361;SHT31;9308;48.550;9.108;2023-08-08T07:31:44;19.03;57.10
18361;SHT31;9308;48.550;9.108;2023-08-08T07:34:30;19.24;58.27
18361;SHT31;9308;48.550;9.108;2023-08-08T07:37:15;19.27;58.72
18361;SHT31;9308;48.550;9.108;2023-08-08T07:40:01;19.51;59.14
18361;SHT31;9308;48.550;9.108;2023-08-08T07:42:47;19.68;58.09
18361;SHT31;9308;48.550;9.108;2023-08-08T07:45:33;19.76;57.72
18361;SHT31;9308;48.550;9.108;2023-08-08T07:48:18;20.13;56.50
18361;SHT31;9308;48.550;9.108;2023-08-08T07:51:03;20.29;57.11
18361;SHT31;9308;48.550;9.108;2023-08-08T07:53:48;20.09;56.42
18361;SHT31;9308;48.550;9.108;2023-08-08T07:56:35;20.19;55.77
18361;SHT31;9308;48.550;9.108;2023-08-08T07:59:20;20.45;56.39
18361;SHT31;9308;48.550;9.108;2023-08-08T08:02:05;20.36;53.63
18361;SHT31;9308;48.550;9.108;2023-08-08T08:04:51;20.52;54.23
18361;SHT31;9308;48.550;9.108;2023-08-08T08:07:37;20.68;54.42
18361;SHT31;9308;48.550;9.108;2023-08-08T08:10:22;20.85;53.18
18361;SHT31;9308;48.550;9.108;2023-08-08T08:13:08;21.16;53.06
18361;SHT31;9308;48.550;9.108;2023-08-08T08:15:53;21.17;52.72
18361;SHT31;9308;48.550;9.108;2023-08-08T08:18:38;21.30;51.24
18361;SHT31;9308;48.550;9.108;2023-08-08T08:21:24;21.30;51.89
18361;SHT31;9308;48.550;9.108;2023-08-08T08:24:09;21.74;51.73
18361;SHT31;9308;48.550;9.108;2023-08-08T08:26:55;21.68;49.74
18361;SHT31;9308;48.550;9.108;2023-08-08T08:29:40;22.15;50.63
18361;SHT31;9308;48.550;9.108;2023-08-08T08:32:25;21.60;49.78
18361;SHT31;9308;48.550;9.108;2023-08-08T08:35:11;21.65;50.85
18361;SHT31;9308;48.550;9.108;2023-08-08T08:37:58;21.71;50.03
18361;SHT31;9308;48.550;9.108;2023-08-08T08:40:44;21.54;50.90
18361;SHT31;9308;48.550;9.108;2023-08-08T08:43:32;21.55;51.39
18361;SHT31;9308;48.550;9.108;2023-08-08T08:46:20;21.64;51.22
18361;SHT31;9308;48.550;9.108;2023-08-08T08:49:06;21.92;49.88
18361;SHT31;9308;48.550;9.108;2023-08-08T08:51:53;22.16;49.44
18361;SHT31;9308;48.550;9.108;2023-08-08T08:54:39;22.44;49.71
18361;SHT31;9308;48.550;9.108;2023-08-08T08:57:24;22.44;46.91
18361;SHT31;9308;48.550;9.108;2023-08-08T09:00:10;22.47;48.23
18361;SHT31;9308;48.550;9.108;2023-08-08T09:02:56;22.52;48.02
18361;SHT31;9308;48.550;9.108;2023-08-08T09:05:21;22.50;48.05
18361;SHT31;9308;48.550;9.108;2023-08-08T09:07:48;22.63;48.43
18361;SHT31;9308;48.550;9.108;2023-08-08T09:10:15;22.71;47.04
18361;SHT31;9308;48.550;9.108;2023-08-08T09:12:41;22.91;47.48
18361;SHT31;9308;48.550;9.108;2023-08-08T09:15:07;22.70;49.11
18361;SHT31;9308;48.550;9.108;2023-08-08T09:17:34;22.74;47.63
18361;SHT31;9308;48.550;9.108;2023-08-08T09:20:00;22.90;48.31
18361;SHT31;9308;48.550;9.108;2023-08-08T09:22:26;22.99;47.93
18361;SHT31;9308;48.550;9.108;2023-08-08T09:24:55;22.95;47.78
18361;SHT31;9308;48.550;9.108;2023-08-08T09:27:21;23.05;48.08
18361;SHT31;9308;48.550;9.108;2023-08-08T09:29:48;23.20;47.26
18361;SHT31;9308;48.550;9.108;2023-08-08T09:32:14;23.19;47.85
18361;SHT31;9308;48.550;9.108;2023-08-08T09:34:41;22.84;46.73
18361;SHT31;9308;48.550;9.108;2023-08-08T09:37:11;23.02;47.10
18361;SHT31;9308;48.550;9.108;2023-08-08T09:39:37;23.12;45.64
18361;SHT31;9308;48.550;9.108;2023-08-08T09:42:03;23.23;44.49
18361;SHT31;9308;48.550;9.108;2023-08-08T09:44:30;23.36;47.32
18361;SHT31;9308;48.550;9.108;2023-08-08T09:46:57;23.93;48.10
18361;SHT31;9308;48.550;9.108;2023-08-08T09:49:23;23.74;45.66
18361;SHT31;9308;48.550;9.108;2023-08-08T09:51:51;24.06;45.61
18361;SHT31;9308;48.550;9.108;2023-08-08T09:54:18;24.15;44.10
18361;SHT31;9308;48.550;9.108;2023-08-08T09:56:45;24.43;46.28
18361;SHT31;9308;48.550;9.108;2023-08-08T09:59:11;24.28;45.07
18361;SHT31;9308;48.550;9.108;2023-08-08T10:01:40;24.09;44.62
18361;SHT31;9308;48.550;9.108;2023-08-08T10:04:08;24.64;46.97
18361;SHT31;9308;48.550;9.108;2023-08-08T10:06:34;24.57;45.76
18361;SHT31;9308;48.550;9.108;2023-08-08T10:09:02;25.03;44.49
18361;SHT31;9308;48.550;9.108;2023-08-08T10:11:30;25.07;43.88
18361;SHT31;9308;48.550;9.108;2023-08-08T10:13:57;25.10;42.68
18361;SHT31;9308;48.550;9.108;2023-08-08T10:16:25;25.42;41.61
18361;SHT31;9308;48.550;9.108;2023-08-08T10:19:03;25.25;41.29
18361;SHT31;9308;48.550;9.108;2023-08-08T10:21:41;25.18;41.76
18361;SHT31;9308;48.550;9.108;2023-08-08T10:24:20;25.19;41.52
18361;SHT31;9308;48.550;9.108;2023-08-08T10:26:59;25.50;42.53
18361;SHT31;9308;48.550;9.108;2023-08-08T10:29:38;25.11;42.82
18361;SHT31;9308;48.550;9.108;2023-08-08T10:32:23;24.69;42.06
18361;SHT31;9308;48.550;9.108;2023-08-08T10:35:03;25.36;43.30
18361;SHT31;9308;48.550;9.108;2023-08-08T10:37:38;25.83;41.56
18361;SHT31;9308;48.550;9.108;2023-08-08T10:40:17;24.84;40.03
18361;SHT31;9308;48.550;9.108;2023-08-08T10:42:53;24.80;42.18
18361;SHT31;9308;48.550;9.108;2023-08-08T10:45:29;25.21;41.63
18361;SHT31;9308;48.550;9.108;2023-08-08T10:48:09;25.22;39.39
18361;SHT31;9308;48.550;9.108;2023-08-08T10:50:44;25.08;39.64
18361;SHT31;9308;48.550;9.108;2023-08-08T10:53:22;25.80;39.40
18361;SHT31;9308;48.550;9.108;2023-08-08T10:56:03;26.22;40.71
18361;SHT31;9308;48.550;9.108;2023-08-08T10:58:41;25.94;39.80
18361;SHT31;9308;48.550;9.108;2023-08-08T11:01:16;25.73;39.69
18361;SHT31;9308;48.550;9.108;2023-08-08T11:03:52;26.05;39.90
18361;SHT31;9308;48.550;9.108;2023-08-08T11:06:27;26.66;39.75
18361;SHT31;9308;48.550;9.108;2023-08-08T11:09:05;25.97;37.80
18361;SHT31;9308;48.550;9.108;2023-08-08T11:11:43;25.49;39.22
18361;SHT31;9308;48.550;9.108;2023-08-08T11:14:20;26.18;38.78
18361;SHT31;9308;48.550;9.108;2023-08-08T11:16:56;25.96;39.34
18361;SHT31;9308;48.550;9.108;2023-08-08T11:19:38;26.15;37.74
18361;SHT31;9308;48.550;9.108;2023-08-08T11:22:13;26.38;37.87
18361;SHT31;9308;48.550;9.108;2023-08-08T11:24:49;26.32;37.73
18361;SHT31;9308;48.550;9.108;2023-08-08T11:27:25;26.44;36.63
18361;SHT31;9308;48.550;9.108;2023-08-08T11:30:01;26.52;37.11
18361;SHT31;9308;48.550;9.108;2023-08-08T11:32:36;27.06;35.92
18361;SHT31;9308;48.550;9.108;2023-08-08T11:35:11;27.52;37.68
18361;SHT31;9308;48.550;9.108;2023-08-08T11:37:47;28.03;35.67
18361;SHT31;9308;48.550;9.108;2023-08-08T11:40:25;28.30;35.40
18361;SHT31;9308;48.550;9.108;2023-08-08T11:43:11;28.41;34.76
18361;SHT31;9308;48.550;9.108;2023-08-08T11:45:48;29.41;33.24
18361;SHT31;9308;48.550;9.108;2023-08-08T11:48:32;30.06;34.51
18361;SHT31;9308;48.550;9.108;2023-08-08T11:51:18;30.40;34.16
18361;SHT31;9308;48.550;9.108;2023-08-08T11:54:02;30.67;32.07
18361;SHT31;9308;48.550;9.108;2023-08-08T11:56:39;31.22;31.04
18361;SHT31;9308;48.550;9.108;2023-08-08T11:59:10;29.65;32.36
18361;SHT31;9308;48.550;9.108;2023-08-08T12:01:41;29.92;32.82
18361;SHT31;9308;48.550;9.108;2023-08-08T12:04:08;30.74;32.23
18361;SHT31;9308;48.550;9.108;2023-08-08T12:06:37;30.91;30.49
18361;SHT31;9308;48.550;9.108;2023-08-08T12:09:05;30.85;28.68
18361;SHT31;9308;48.550;9.108;2023-08-08T12:11:34;32.21;28.46
18361;SHT31;9308;48.550;9.108;2023-08-08T12:14:00;33.66;27.90
18361;SHT31;9308;48.550;9.108;2023-08-08T12:16:28;33.28;27.60
18361;SHT31;9308;48.550;9.108;2023-08-08T12:18:55;34.31;25.50
18361;SHT31;9308;48.550;9.108;2023-08-08T12:21:21;33.52;27.86
18361;SHT31;9308;48.550;9.108;2023-08-08T12:23:46;32.98;25.67
18361;SHT31;9308;48.550;9.108;2023-08-08T12:26:11;33.07;26.67
18361;SHT31;9308;48.550;9.108;2023-08-08T12:28:37;33.85;26.15
18361;SHT31;9308;48.550;9.108;2023-08-08T12:31:03;33.56;26.14
18361;SHT31;9308;48.550;9.108;2023-08-08T12:33:28;35.33;25.89
18361;SHT31;9308;48.550;9.108;2023-08-08T12:35:54;35.85;25.03
18361;SHT31;9308;48.550;9.108;2023-08-08T12:38:19;36.12;24.85
18361;SHT31;9308;48.550;9.108;2023-08-08T12:40:45;37.72;22.64
18361;SHT31;9308;48.550;9.108;2023-08-08T12:43:11;35.45;23.26
18361;SHT31;9308;48.550;9.108;2023-08-08T12:45:43;35.59;24.47
18361;SHT31;9308;48.550;9.108;2023-08-08T12:48:10;35.51;24.43
18361;SHT31;9308;48.550;9.108;2023-08-08T12:50:35;35.47;25.41
18361;SHT31;9308;48.550;9.108;2023-08-08T12:53:01;36.09;22.34
18361;SHT31;9308;48.550;9.108;2023-08-08T12:55:26;37.15;22.83
18361;SHT31;9308;48.550;9.108;2023-08-08T12:57:52;37.17;23.27
18361;SHT31;9308;48.550;9.108;2023-08-08T13:00:17;35.43;24.49
18361;SHT31;9308;48.550;9.108;2023-08-08T13:02:43;38.22;21.68
18361;SHT31;9308;48.550;9.108;2023-08-08T13:05:08;40.29;20.51
18361;SHT31;9308;48.550;9.108;2023-08-08T13:07:35;41.57;21.28
18361;SHT31;9308;48.550;9.108;2023-08-08T13:10:00;40.62;20.48
18361;SHT31;9308;48.550;9.108;2023-08-08T13:12:25;35.70;24.64
18361;SHT31;9308;48.550;9.108;2023-08-08T13:14:51;32.49;26.78
18361;SHT31;9308;48.550;9.108;2023-08-08T13:17:16;31.13;30.05
18361;SHT31;9308;48.550;9.108;2023-08-08T13:19:42;31.40;30.55
18361;SHT31;9308;48.550;9.108;2023-08-08T13:22:07;35.57;25.39
18361;SHT31;9308;48.550;9.108;2023-08-08T13:24:32;37.05;23.39
18361;SHT31;9308;48.550;9.108;2023-08-08T13:26:58;38.10;20.73
18361;SHT31;9308;48.550;9.108;2023-08-08T13:29:23;37.72;21.73
18361;SHT31;9308;48.550;9.108;2023-08-08T13:31:49;36.78;22.69
18361;SHT31;9308;48.550;9.108;2023-08-08T13:34:14;34.35;24.38
18361;SHT31;9308;48.550;9.108;2023-08-08T13:36:40;32.36;27.72
18361;SHT31;9308;48.550;9.108;2023-08-08T13:39:05;30.93;29.47
18361;SHT31;9308;48.550;9.108;2023-08-08T13:41:30;29.66;29.74
18361;SHT31;9308;48.550;9.108;2023-08-08T13:43:56;29.06;30.93
18361;SHT31;9308;48.550;9.108;2023-08-08T13:46:22;29.24;31.09
18361;SHT31;9308;48.550;9.108;2023-08-08T13:48:47;30.16;30.93
18361;SHT31;9308;48.550;9.108;2023-08-08T13:51:12;31.77;28.97
18361;SHT31;9308;48.550;9.108;2023-08-08T13:53:56;32.15;28.25
18361;SHT31;9308;48.550;9.108;2023-08-08T13:56:41;32.53;28.73
18361;SHT31;9308;48.550;9.108;2023-08-08T13:59:27;31.51;28.88
18361;SHT31;9308;48.550;9.108;2023-08-08T14:02:12;30.86;31.10
18361;SHT31;9308;48.550;9.108;2023-08-08T14:04:57;29.37;31.28
18361;SHT31;9308;48.550;9.108;2023-08-08T14:07:43;28.31;33.60
18361;SHT31;9308;48.550;9.108;2023-08-08T14:10:29;28.04;34.51
18361;SHT31;9308;48.550;9.108;2023-08-08T14:13:14;27.29;35.24
18361;SHT31;9308;48.550;9.108;2023-08-08T14:16:00;26.91;36.06
18361;SHT31;9308;48.550;9.108;2023-08-08T14:18:45;26.45;37.03
18361;SHT31;9308;48.550;9.108;2023-08-08T14:21:31;26.18;36.84
18361;SHT31;9308;48.550;9.108;2023-08-08T14:24:16;25.71;38.23
18361;SHT31;9308;48.550;9.108;2023-08-08T14:27:01;25.46;38.88
18361;SHT31;9308;48.550;9.108;2023-08-08T14:29:47;25.87;38.95
18361;SHT31;9308;48.550;9.108;2023-08-08T14:32:32;25.71;38.50
18361;SHT31;9308;48.550;9.108;2023-08-08T14:35:18;25.65;37.45
18361;SHT31;9308;48.550;9.108;2023-08-08T14:38:03;26.01;37.81
18361;SHT31;9308;48.550;9.108;2023-08-08T14:40:48;25.87;37.95
18361;SHT31;9308;48.550;9.108;2023-08-08T14:43:34;26.21;37.28
18361;SHT31;9308;48.550;9.108;2023-08-08T14:46:19;26.25;37.64
18361;SHT31;9308;48.550;9.108;2023-08-08T14:49:04;26.53;37.28
18361;SHT31;9308;48.550;9.108;2023-08-08T14:51:51;25.86;37.60
18361;SHT31;9308;48.550;9.108;2023-08-08T14:54:36;24.80;39.70
18361;SHT31;9308;48.550;9.108;2023-08-08T14:57:21;24.95;39.87
18361;SHT31;9308;48.550;9.108;2023-08-08T15:00:07;25.11;39.39
18361;SHT31;9308;48.550;9.108;2023-08-08T15:02:54;25.22;39.40
18361;SHT31;9308;48.550;9.108;2023-08-08T15:05:40;25.18;39.97
18361;SHT31;9308;48.550;9.108;2023-08-08T15:08:26;24.81;40.51
18361;SHT31;9308;48.550;9.108;2023-08-08T15:11:11;24.63;40.19
18361;SHT31;9308;48.550;9.108;2023-08-08T15:13:57;24.52;40.26
18361;SHT31;9308;48.550;9.108;2023-08-08T15:16:53;24.09;42.00
18361;SHT31;9308;48.550;9.108;2023-08-08T15:19:39;23.97;42.07
18361;SHT31;9308;48.550;9.108;2023-08-08T15:22:24;23.73;41.93
18361;SHT31;9308;48.550;9.108;2023-08-08T15:25:09;23.87;41.88
18361;SHT31;9308;48.550;9.108;2023-08-08T15:27:54;24.01;42.39
18361;SHT31;9308;48.550;9.108;2023-08-08T15:30:40;24.52;42.07
18361;SHT31;9308;48.550;9.108;2023-08-08T15:33:25;24.50;42.04
18361;SHT31;9308;48.550;9.108;2023-08-08T15:36:11;24.57;43.22
18361;SHT31;9308;48.550;9.108;2023-08-08T15:38:56;24.66;42.29
18361;SHT31;9308;48.550;9.108;2023-08-08T15:41:41;24.64;42.90
18361;SHT31;9308;48.550;9.108;2023-08-08T15:44:27;24.40;43.37
18361;SHT31;9308;48.550;9.108;2023-08-08T15:47:12;23.91;43.75
18361;SHT31;9308;48.550;9.108;2023-08-08T15:49:57;23.94;43.60
18361;SHT31;9308;48.550;9.108;2023-08-08T15:52:43;23.73;43.94
18361;SHT31;9308;48.550;9.108;2023-08-08T15:55:28;23.70;43.81
18361;SHT31;9308;48.550;9.108;2023-08-08T15:58:13;23.84;44.20
18361;SHT31;9308;48.550;9.108;2023-08-08T16:00:59;23.74;44.38
18361;SHT31;9308;48.550;9.108;2023-08-08T16:03:44;23.61;44.06
18361;SHT31;9308;48.550;9.108;2023-08-08T16:06:29;23.39;45.26
18361;SHT31;9308;48.550;9.108;2023-08-08T16:09:14;23.64;44.52
18361;SHT31;9308;48.550;9.108;2023-08-08T16:12:00;23.54;45.66
18361;SHT31;9308;48.550;9.108;2023-08-08T16:14:45;26.24;41.95
18361;SHT31;9308;48.550;9.108;2023-08-08T16:17:31;26.55;40.14
18361;SHT31;9308;48.550;9.108;2023-08-08T16:20:16;27.96;38.17
18361;SHT31;9308;48.550;9.108;2023-08-08T16:23:02;28.72;37.08
18361;SHT31;9308;48.550;9.108;2023-08-08T16:25:47;28.12;38.01
18361;SHT31;9308;48.550;9.108;2023-08-08T16:28:32;30.09;34.72
18361;SHT31;9308;48.550;9.108;2023-08-08T16:31:20;32.86;30.11
18361;SHT31;9308;48.550;9.108;2023-08-08T16:34:06;35.26;28.94
18361;SHT31;9308;48.550;9.108;2023-08-08T16:36:51;36.29;27.33
18361;SHT31;9308;48.550;9.108;2023-08-08T16:39:36;35.29;26.96
18361;SHT31;9308;48.550;9.108;2023-08-08T16:42:21;35.23;27.78
18361;SHT31;9308;48.550;9.108;2023-08-08T16:45:07;34.72;28.17
18361;SHT31;9308;48.550;9.108;2023-08-08T16:47:52;33.39;29.24
18361;SHT31;9308;48.550;9.108;2023-08-08T16:50:37;32.73;30.35
18361;SHT31;9308;48.550;9.108;2023-08-08T16:53:24;30.79;32.39
18361;SHT31;9308;48.550;9.108;2023-08-08T16:56:09;29.71;34.59
18361;SHT31;9308;48.550;9.108;2023-08-08T16:58:54;28.68;35.76
18361;SHT31;9308;48.550;9.108;2023-08-08T17:01:40;28.20;36.67
18361;SHT31;9308;48.550;9.108;2023-08-08T17:04:26;27.08;37.74
18361;SHT31;9308;48.550;9.108;2023-08-08T17:07:11;26.60;39.10
18361;SHT31;9308;48.550;9.108;2023-08-08T17:09:57;26.49;38.89
18361;SHT31;9308;48.550;9.108;2023-08-08T17:12:42;25.97;40.05